Latest Weather Observations for Perth Airport

IDW60901

Issued at 9:51 am WST Friday 6 May 2016 (issued every 10 minutes, with the page automatically refreshed every 10 minutes)

About weather observations | Map of Perth area stations | Latest observations for Perth area | Other Formats
Station Details ID: 009021 Name: PERTH AIRPORT Lat: -31.93 Lon: 115.98 Height: 15.4 m
Data from the previous 72 hours. | See also: Recent months at Perth Airport
Date/Time
WST
Tmp

°C
App
Tmp
°C
Dew
Point
°C
Rel
Hum
%
Delta-T

°C
Wind Press
QNH
hPa
Press
MSL
hPa
Rain
since
9 am
mm
Dir
 
Spd
km/h
Gust
km/h
Spd
kts
Gust
kts
06/09:30am 15.1 14.8 13.3 89 1.0 SE 7 13 4 7 1012.5 - 0.2
06/09:00am 15.7 15.8 13.9 89 1.0 WSW 6 13 3 7 1013.1 1013.1 0.0
06/08:30am 15.5 15.0 13.7 89 1.0 NNE 9 11 5 6 1012.9 - 0.0
06/08:00am 14.3 14.1 13.6 96 0.4 SE 7 9 4 5 1012.8 - 0.0
06/07:30am 13.4 12.6 13.0 97 0.2 SE 9 9 5 5 1012.5 - 0.0
06/07:00am 13.3 13.5 12.9 97 0.2 SE 4 7 2 4 1012.4 - 0.0
06/06:30am 13.0 12.7 12.6 97 0.2 SE 6 9 3 5 1012.3 - 0.0
06/06:00am 13.7 13.0 13.2 97 0.3 SE 9 11 5 6 1012.1 1012.1 0.0
06/05:30am 13.6 14.6 13.1 97 0.3 CALM 0 0 0 0 1012.1 - 0.0
06/05:00am 13.6 13.4 13.1 97 0.3 SE 6 6 3 3 1012.0 - 0.0
06/04:30am 13.5 14.4 13.0 97 0.3 CALM 0 0 0 0 1012.1 - 0.0
06/04:00am 13.7 14.7 13.2 97 0.3 CALM 0 0 0 0 1012.3 - 0.0
06/03:30am 13.2 13.6 12.5 95 0.4 SE 2 7 1 4 1012.2 - 0.0
06/03:00am 13.2 12.3 12.6 96 0.3 SE 9 9 5 5 1012.3 1012.3 0.0
06/02:30am 13.4 12.9 12.7 95 0.4 SE 7 7 4 4 1012.7 - 0.0
06/02:00am 14.3 14.0 13.4 94 0.5 SSE 7 7 4 4 1012.8 - 0.0
06/01:30am 15.4 15.2 13.6 89 1.0 SSW 7 9 4 5 1013.4 - 0.0
06/01:00am 15.9 14.6 12.6 81 1.8 SSW 11 13 6 7 1013.5 - 0.0
06/12:30am 16.0 14.8 12.7 81 1.8 SSW 11 13 6 7 1013.4 - 0.0
06/12:00am 15.7 14.6 13.2 85 1.4 SSE 11 13 6 7 1013.6 1013.6 0.0
 
Date/Time
WST
Tmp

°C
App
Tmp
°C
Dew
Point
°C
Rel
Hum
%
Delta-T

°C
Wind Press
QNH
hPa
Press
MSL
hPa
Rain
since
9 am
mm
Dir
 
Spd
km/h
Gust
km/h
Spd
kts
Gust
kts
05/11:30pm 15.9 14.1 13.4 85 1.4 S 15 17 8 9 1014.2 - 0.0
05/11:00pm 16.2 14.7 13.0 81 1.8 S 13 17 7 9 1014.4 - 0.0
05/10:30pm 16.3 15.2 13.1 81 1.8 SSW 11 15 6 8 1014.5 - 0.0
05/10:00pm 16.1 15.0 13.2 83 1.6 SSW 11 13 6 7 1014.4 - 0.0
05/09:30pm 16.2 14.4 13.2 82 1.7 S 15 19 8 10 1014.5 - 0.0
05/09:00pm 16.2 14.7 13.2 82 1.7 S 13 17 7 9 1014.7 1014.7 0.0
05/08:30pm 16.3 14.9 13.4 83 1.6 SSW 13 17 7 9 1014.8 - 0.0
05/08:00pm 16.5 14.1 13.7 83 1.6 S 19 22 10 12 1014.8 - 0.0
05/07:30pm 16.4 14.0 14.5 88 1.1 S 20 26 11 14 1014.7 - 0.0
05/07:00pm 17.1 14.2 14.1 82 1.7 SSW 22 28 12 15 1014.6 - 0.0
05/06:30pm 17.2 15.6 14.0 81 1.8 SSW 15 17 8 9 1014.3 - 0.0
05/06:00pm 18.2 15.8 13.8 75 2.5 SW 19 24 10 13 1014.1 1014.1 0.0
05/05:30pm 18.6 16.5 13.7 73 2.8 SW 17 24 9 13 1013.8 - 0.0
05/05:00pm 19.0 17.2 13.2 69 3.3 WSW 15 19 8 10 1013.8 - 0.0
05/04:30pm 19.5 18.0 13.0 66 3.7 SW 13 17 7 9 1013.9 - 0.0
05/04:00pm 19.9 18.5 13.4 66 3.7 SW 13 15 7 8 1013.8 - 0.0
05/03:30pm 19.7 18.6 13.0 65 3.8 SSW 11 15 6 8 1013.6 - 0.0
05/03:00pm 19.9 18.4 13.2 65 3.8 SSW 13 17 7 9 1013.6 1013.6 0.0
05/02:30pm 20.0 18.8 12.9 63 4.0 SW 11 15 6 8 1013.5 - 0.0
05/02:00pm 20.0 18.8 12.7 63 4.1 SW 11 15 6 8 1013.7 - 0.0
05/01:30pm 20.1 19.2 12.6 62 4.2 SSW 9 13 5 7 1014.0 - 0.0
05/01:00pm 19.9 19.4 12.6 63 4.1 SSW 7 13 4 7 1014.4 - 0.0
05/12:30pm 20.4 18.9 13.0 62 4.2 S 13 15 7 8 1014.7 - 0.0
05/12:00pm 20.8 19.9 12.5 59 4.7 SSW 9 13 5 7 1015.2 1015.2 0.0
05/11:30am 21.1 20.3 13.0 60 4.6 S 9 13 5 7 1015.6 - 0.0
05/11:00am 20.0 19.7 12.7 63 4.1 SSE 6 11 3 6 1016.1 - 0.0
05/10:30am 19.3 18.4 12.7 65 3.7 SE 9 13 5 7 1016.3 - 0.0
05/10:00am 18.7 18.7 13.6 72 2.9 NNE 6 9 3 5 1016.4 - 0.0
05/09:30am 16.9 16.2 13.3 79 2.0 N 9 11 5 6 1016.5 - 0.0
05/09:00am 15.5 14.8 13.2 86 1.3 N 9 9 5 5 1016.6 1016.6 0.2
05/08:30am 14.1 13.6 12.8 92 0.7 NNE 7 11 4 6 1016.5 - 0.2
05/08:00am 13.9 12.7 12.8 93 0.6 N 11 13 6 7 1016.3 - 0.2
05/07:30am 13.0 11.3 12.3 95 0.4 N 13 17 7 9 1016.3 - 0.2
05/07:00am 12.9 11.9 12.2 95 0.4 NNE 9 15 5 8 1016.0 - 0.2
05/06:30am 12.5 11.4 11.9 96 0.3 NE 9 15 5 8 1015.9 - 0.2
05/06:00am 12.1 10.9 11.7 97 0.2 NNE 9 11 5 6 1015.6 1015.6 0.2
05/05:30am 12.2 11.4 11.8 97 0.2 NNE 7 9 4 5 1015.4 - 0.2
05/05:19am 12.6 12.0 12.4 99 0.1 NNE 7 7 4 4 1015.3 - 0.2
05/05:00am 13.4 13.1 13.2 99 0.1 NNE 7 9 4 5 1015.3 - 0.2
05/04:30am 14.0 13.9 13.8 99 0.1 NNE 7 7 4 4 1015.3 - 0.2
05/04:00am 14.0 13.5 13.8 99 0.1 NNE 9 11 5 6 1015.1 - 0.0
05/03:30am 13.9 13.4 13.7 99 0.1 NE 9 11 5 6 1015.0 - 0.0
05/03:00am 13.5 14.4 13.0 97 0.3 CALM 0 - 0 - 1015.0 1015.0 0.0
05/02:42am 13.0 13.8 12.6 97 0.2 CALM 0 4 0 2 1015.0 - 0.0
05/02:30am 12.9 12.4 12.5 97 0.2 NE 7 9 4 5 1015.0 - 0.0
05/02:12am 13.8 13.8 13.6 99 0.1 NE 6 7 3 4 1015.1 - 0.0
05/02:00am 13.8 13.5 13.4 97 0.2 NE 7 9 4 5 1015.1 - 0.0
05/01:30am 14.9 15.0 14.5 97 0.2 ESE 7 11 4 6 1015.2 - 0.0
05/01:00am 14.8 14.8 14.3 97 0.3 SW 7 9 4 5 1015.5 - 0.0
05/12:30am 15.6 17.3 15.1 97 0.3 CALM 0 0 0 0 1015.6 - 0.0
05/12:00am 15.8 16.3 15.1 96 0.4 SSW 6 7 3 4 1015.7 1015.7 0.0
 
Date/Time
WST
Tmp

°C
App
Tmp
°C
Dew
Point
°C
Rel
Hum
%
Delta-T

°C
Wind Press
QNH
hPa
Press
MSL
hPa
Rain
since
9 am
mm
Dir
 
Spd
km/h
Gust
km/h
Spd
kts
Gust
kts
04/11:30pm 16.1 16.4 15.1 94 0.6 SSW 7 9 4 5 1015.7 - 0.0
04/11:00pm 16.5 18.0 15.6 94 0.5 SW 2 6 1 3 1015.7 - 0.0
04/10:30pm 16.7 17.5 15.8 94 0.5 SW 6 7 3 4 1015.7 - 0.0
04/10:00pm 16.7 16.9 15.8 94 0.5 WSW 9 11 5 6 1015.8 - 0.0
04/09:44pm 16.7 14.9 15.5 93 0.7 SW 19 26 10 14 1015.8 - 0.0
04/09:30pm 16.7 16.4 14.4 86 1.3 W 9 13 5 7 1015.6 - 0.0
04/09:15pm 16.4 15.7 14.3 87 1.2 SW 11 13 6 7 1015.5 - 0.0
04/09:00pm 16.9 16.3 14.5 86 1.4 SSW 11 13 6 7 1015.4 1015.4 0.0
04/08:30pm 17.2 16.5 14.4 83 1.6 SSW 11 13 6 7 1015.5 - 0.0
04/08:00pm 17.9 16.8 14.4 80 2.0 SSW 13 26 7 14 1015.5 - 0.0
04/07:30pm 18.3 17.6 14.3 77 2.3 SSW 11 15 6 8 1015.4 - 0.0
04/07:00pm 18.7 17.6 13.2 70 3.1 WSW 11 15 6 8 1015.2 - 0.0
04/06:30pm 18.6 17.3 12.5 67 3.4 WSW 11 13 6 7 1014.8 - 0.0
04/06:00pm 18.7 15.7 12.0 65 3.7 SW 19 24 10 13 1014.6 1014.6 0.0
04/05:30pm 18.7 16.5 12.0 65 3.7 SSW 15 19 8 10 1014.5 - 0.0
04/05:00pm 19.5 16.6 12.3 63 4.0 SW 19 24 10 13 1014.5 - 0.0
04/04:30pm 19.7 16.7 12.4 62 4.1 SSW 20 28 11 15 1014.5 - 0.0
04/04:00pm 20.8 17.6 12.0 57 4.9 WSW 20 30 11 16 1014.5 - 0.0
04/03:30pm 21.0 18.0 11.9 56 5.1 W 19 24 10 13 1014.4 - 0.0
04/03:18pm 21.2 18.0 11.9 55 5.2 W 20 - 11 - - 1014.5 0.0
04/03:00pm 21.2 18.0 11.9 55 5.2 W 20 30 11 16 1014.5 1014.5 0.0
04/02:30pm 21.7 18.4 11.5 52 5.7 W 20 32 11 17 1014.5 - 0.0
04/02:00pm 21.6 19.4 12.2 55 5.3 W 15 24 8 13 1014.7 - 0.0
04/01:30pm 21.2 18.7 12.3 57 5.0 W 17 24 9 13 1015.0 - 0.0
04/01:00pm 20.8 18.9 11.8 56 5.0 WSW 13 19 7 10 1015.3 - 0.0
04/12:30pm 20.9 19.0 11.7 55 5.1 WSW 13 19 7 10 1015.8 - 0.0
04/12:00pm 20.4 18.6 12.0 58 4.7 WSW 13 19 7 10 1016.4 1016.4 0.0
04/11:30am 19.9 18.9 12.2 61 4.3 WSW 9 17 5 9 1016.8 - 0.0
04/11:00am 19.1 19.5 12.5 65 3.7 NW 2 7 1 4 1017.3 - 0.0
04/10:30am 18.6 19.1 12.7 68 3.3 W 2 7 1 4 1017.6 - 0.0
04/10:00am 18.3 18.7 12.6 69 3.2 SE 2 9 1 5 1017.7 - 0.0
04/09:30am 16.7 15.8 12.7 77 2.2 ENE 9 11 5 6 1017.9 - 0.0
04/09:00am 15.5 14.4 12.0 79 1.9 NNE 9 11 5 6 1018.1 1018.1 0.0
04/08:30am 14.6 13.1 12.0 84 1.4 NNE 11 15 6 8 1018.2 - 0.0
04/08:00am 14.0 12.5 11.8 86 1.2 NNE 11 13 6 7 1018.3 - 0.0
04/07:30am 13.1 10.8 11.6 91 0.8 NNE 15 19 8 10 1018.1 - 0.0
04/07:00am 12.9 10.9 11.6 92 0.7 NNE 13 17 7 9 1017.9 - 0.0
04/06:30am 12.7 11.1 11.6 93 0.6 NE 11 15 6 8 1017.8 - 0.0
04/06:00am 12.6 11.0 11.7 94 0.5 NNE 11 15 6 8 1017.8 1017.8 0.0
04/05:30am 12.8 11.3 11.9 94 0.5 NNE 11 15 6 8 1017.8 - 0.0
04/05:00am 12.7 10.4 11.6 93 0.6 NNE 15 17 8 9 1017.8 - 0.0
04/04:30am 12.2 10.5 11.2 94 0.5 E 11 13 6 7 1017.7 - 0.0
04/04:00am 12.7 11.6 11.8 94 0.5 E 9 13 5 7 1017.8 - 0.0
04/03:30am 12.8 11.3 11.9 94 0.5 E 11 13 6 7 1018.0 - 0.0
04/03:00am 13.0 11.9 11.9 93 0.6 E 9 9 5 5 1018.2 1018.2 0.0
04/02:30am 12.6 11.4 11.5 93 0.6 E 9 11 5 6 1018.5 - 0.0
04/02:00am 11.2 10.0 10.4 95 0.4 E 7 9 4 5 1018.7 - 0.0
04/01:30am 10.1 9.6 9.5 96 0.3 E 2 6 1 3 1018.9 - 0.0
04/01:00am 10.3 8.6 9.7 96 0.3 E 9 11 5 6 1019.1 - 0.0
04/12:30am 10.1 8.7 9.5 96 0.3 E 7 9 4 5 1019.3 - 0.0
04/12:00am 10.5 9.4 10.1 97 0.2 E 6 7 3 4 1019.4 1019.4 0.0
 
Date/Time
WST
Tmp

°C
App
Tmp
°C
Dew
Point
°C
Rel
Hum
%
Delta-T

°C
Wind Press
QNH
hPa
Press
MSL
hPa
Rain
since
9 am
mm
Dir
 
Spd
km/h
Gust
km/h
Spd
kts
Gust
kts
03/11:30pm 11.0 10.8 10.4 96 0.3 E 2 7 1 4 1019.4 - 0.0
03/11:00pm 11.7 10.4 11.1 96 0.3 E 9 9 5 5 1019.6 - 0.0
03/10:30pm 12.1 10.8 11.3 95 0.4 ESE 9 11 5 6 1019.9 - 0.0
03/10:00pm 13.1 12.4 12.0 93 0.6 SE 7 9 4 5 1020.1 - 0.0
03/09:30pm 14.5 13.6 12.7 89 1.0 S 9 11 5 6 1020.1 - 0.0
03/09:00pm 15.8 15.4 13.1 84 1.5 S 7 9 4 5 1020.1 1020.1 0.0
03/08:30pm 16.0 14.5 13.1 83 1.6 S 13 17 7 9 1020.0 - 0.0
03/08:00pm 16.7 14.8 13.1 79 2.0 S 15 19 8 10 1020.0 - 0.0
03/07:30pm 17.3 15.5 13.2 77 2.3 S 15 20 8 11 1019.8 - 0.0
03/07:00pm 17.8 15.5 13.0 73 2.7 SW 17 20 9 11 1019.7 - 0.0
03/06:30pm 19.3 17.9 12.3 64 3.9 SW 11 17 6 9 1019.5 - 0.0
03/06:00pm 19.4 18.3 13.0 66 3.6 W 11 13 6 7 1019.3 1019.3 0.0
03/05:30pm 19.4 18.5 12.6 64 3.8 SSW 9 11 5 6 1019.2 - 0.0
03/05:00pm 19.7 18.9 12.8 64 3.9 SSW 9 13 5 7 1019.1 - 0.0
03/04:30pm 20.1 19.1 12.2 60 4.4 S 9 13 5 7 1019.3 - 0.0
03/04:00pm 20.4 19.5 11.5 56 4.9 S 7 13 4 7 1019.4 - 0.0
03/03:30pm 20.5 18.5 11.4 56 5.0 S 13 19 7 10 1019.5 - 0.0
03/03:00pm 20.4 19.2 11.7 57 4.8 SSE 9 13 5 7 1019.7 1019.7 0.0
03/02:30pm 20.7 19.1 11.7 56 5.0 SSE 11 15 6 8 1019.8 - 0.0
03/02:00pm 20.1 18.3 12.0 59 4.5 S 13 17 7 9 1020.0 - 0.0
03/01:30pm 20.3 18.7 11.6 57 4.8 S 11 19 6 10 1020.1 - 0.0
03/01:00pm 20.5 17.9 12.1 58 4.7 SSE 17 22 9 12 1020.4 - 0.0
03/12:30pm 20.7 18.7 11.5 55 5.1 SSE 13 19 7 10 1020.8 - 0.0
03/12:00pm 19.6 17.4 12.2 62 4.1 S 15 20 8 11 1021.3 1021.3 0.0
03/11:30am 19.7 17.1 11.9 60 4.3 S 17 22 9 12 1021.8 - 0.0
03/11:00am 19.6 16.9 11.6 60 4.4 SSE 17 22 9 12 1022.1 - 0.0
03/10:30am 19.1 19.2 11.6 62 4.1 N 2 7 1 4 1022.3 - 0.0
03/10:00am 18.3 17.9 12.3 68 3.3 N 6 11 3 6 1022.4 - 0.0

Latest Capital City Observations: Canberra | Sydney | Melbourne | Brisbane | Adelaide | Perth | Hobart | Darwin

Other Formats:

Comma delimited format used in spreadsheet applications
http://www.bom.gov.au/fwo/IDW60901/IDW60901.94610.axf

JavaScript Object Notation format (JSON) in row-major order
http://www.bom.gov.au/fwo/IDW60901/IDW60901.94610.json